Terminal Aerodrome Forecast
Issued by NWS

Home | Current Version | Previous Version | Text Only | Print | Product List | Glossary On
Versions: 1 2 3 4 5 6 7 8 9 10 11 12 13
000
FTUS45 KVEF 291700
TAFBIH
TAF
KBIH 291720Z 2918/3018 VRB06KT P6SM SCT250
     FM292100 17012KT P6SM FEW100 SCT250
     FM300400 32006KT P6SM SCT250=

USA.gov is the U.S. government's official web portal to all federal, state and local government web resources and services.